createdAt,value
2022-10-24T00:00:00.049Z,1.35
2022-10-24T00:02:27.203Z,1.50
2022-10-24T00:04:54.426Z,1.38
2022-10-24T00:07:21.519Z,1.65
2022-10-24T00:09:48.591Z,1.23
2022-10-24T00:12:15.765Z,1.52
2022-10-24T00:14:42.882Z,1.85
2022-10-24T00:17:09.995Z,1.48
2022-10-24T00:19:37.079Z,1.63
2022-10-24T00:22:04.549Z,1.58
2022-10-24T00:24:31.698Z,1.33
2022-10-24T00:26:58.799Z,1.52
2022-10-24T00:29:25.863Z,1.38
2022-10-24T00:31:52.963Z,1.45
2022-10-24T00:34:20.211Z,1.58
2022-10-24T00:36:47.283Z,1.73
2022-10-24T00:39:14.404Z,1.92
2022-10-24T00:41:42.946Z,1.48
2022-10-24T00:44:19.538Z,1.75
2022-10-24T00:46:48.310Z,1.50
2022-10-24T00:49:16.918Z,1.35
2022-10-24T00:51:45.118Z,1.70
2022-10-24T00:54:14.122Z,1.83
2022-10-24T00:56:57.911Z,1.50
2022-10-24T00:59:25.211Z,1.67
2022-10-24T01:01:52.418Z,1.75
2022-10-24T01:04:19.610Z,1.35
2022-10-24T01:06:55.911Z,1.90
2022-10-24T01:09:22.997Z,1.67
2022-10-24T01:12:03.930Z,1.80
2022-10-24T01:14:34.025Z,2.05
2022-10-24T01:17:21.407Z,2.03
2022-10-24T01:19:51.615Z,1.45
2022-10-24T01:22:26.564Z,1.50
2022-10-24T01:25:08.614Z,1.80
2022-10-24T01:27:44.897Z,1.40
2022-10-24T01:30:13.614Z,1.90
2022-10-24T01:32:44.266Z,1.50
2022-10-24T01:35:27.683Z,1.50
2022-10-24T01:38:08.156Z,1.70
2022-10-24T01:40:50.656Z,1.73
2022-10-24T01:43:20.338Z,1.52
2022-10-24T01:45:50.034Z,2.08
2022-10-24T01:48:19.906Z,1.23
2022-10-24T01:50:48.066Z,1.60
2022-10-24T01:53:15.894Z,1.55
2022-10-24T01:55:43.457Z,1.50
2022-10-24T01:58:10.518Z,1.40
2022-10-24T02:00:37.717Z,1.70
2022-10-24T02:03:23.182Z,1.40
2022-10-24T02:05:53.415Z,1.50
2022-10-24T02:08:23.058Z,1.58
2022-10-24T02:10:55.215Z,1.90
2022-10-24T02:13:27.964Z,1.50
2022-10-24T02:18:22.300Z,1.50
2022-10-24T02:20:56.069Z,2.00
2022-10-24T02:23:28.935Z,1.77
2022-10-24T02:25:58.252Z,1.80
2022-10-24T02:28:26.901Z,2.03
2022-10-24T02:31:00.695Z,1.90
2022-10-24T02:33:29.302Z,2.25
2022-10-24T02:35:56.730Z,1.77
2022-10-24T02:38:34.991Z,2.22
2022-10-24T02:41:03.479Z,2.05
2022-10-24T02:43:30.905Z,2.60
2022-10-24T02:45:59.186Z,1.80
2022-10-24T02:48:29.714Z,1.63
2022-10-24T02:50:56.797Z,2.10
2022-10-24T02:53:25.015Z,1.88
2022-10-24T02:55:52.159Z,2.10
2022-10-24T02:58:19.318Z,2.08
2022-10-24T03:00:46.480Z,2.20
2022-10-24T03:03:13.926Z,1.90
2022-10-24T03:05:40.994Z,2.22
2022-10-24T03:08:08.112Z,1.92
2022-10-24T03:10:35.239Z,2.10
2022-10-24T03:13:03.618Z,1.88
2022-10-24T03:15:30.932Z,1.50
2022-10-24T03:17:58.092Z,2.33
2022-10-24T03:20:25.225Z,2.30
2022-10-24T03:22:52.418Z,2.60
2022-10-24T03:25:19.573Z,2.33
2022-10-24T03:27:46.925Z,2.30
2022-10-24T03:30:14.404Z,2.33
2022-10-24T03:32:41.592Z,2.78
2022-10-24T03:35:11.719Z,2.30
2022-10-24T03:37:41.163Z,3.17
2022-10-24T03:40:08.669Z,3.13
2022-10-24T03:42:35.767Z,2.95
2022-10-24T03:45:02.851Z,2.67
2022-10-24T03:47:29.917Z,2.90
2022-10-24T03:49:57.003Z,2.85
2022-10-24T03:52:24.066Z,2.75
2022-10-24T03:54:51.172Z,2.45
2022-10-24T03:57:18.276Z,2.45
2022-10-24T03:59:45.435Z,2.35
2022-10-24T04:02:13.828Z,2.45
2022-10-24T04:04:42.195Z,2.38
2022-10-24T04:07:09.361Z,2.42
2022-10-24T04:09:36.445Z,2.78
2022-10-24T04:12:03.618Z,2.65
2022-10-24T04:14:30.662Z,2.97
2022-10-24T04:16:57.832Z,2.20
2022-10-24T04:19:24.947Z,2.60
2022-10-24T04:21:52.015Z,2.08
2022-10-24T04:24:19.138Z,2.22
2022-10-24T04:26:46.556Z,2.70
2022-10-24T04:29:13.643Z,2.53
2022-10-24T04:31:40.779Z,2.55
2022-10-24T04:34:07.914Z,2.63
2022-10-24T04:36:35.432Z,2.70
2022-10-24T04:39:02.717Z,2.55
2022-10-24T04:41:29.778Z,2.70
2022-10-24T04:43:56.839Z,2.33
2022-10-24T04:46:23.928Z,2.80
2022-10-24T04:48:51.057Z,2.50
2022-10-24T04:51:21.567Z,2.78
2022-10-24T04:53:49.780Z,2.72
2022-10-24T04:56:17.588Z,3.22
2022-10-24T04:58:44.726Z,2.90
2022-10-24T05:01:11.893Z,2.60
2022-10-24T05:03:39.054Z,2.95
2022-10-24T05:06:06.318Z,2.70
2022-10-24T05:08:33.423Z,2.30
2022-10-24T05:11:00.563Z,2.90
2022-10-24T05:13:28.008Z,2.13
2022-10-24T05:15:56.257Z,2.35
2022-10-24T05:18:23.337Z,2.72
2022-10-24T05:20:50.390Z,2.63
2022-10-24T05:23:17.489Z,2.97
2022-10-24T05:25:44.554Z,2.10
2022-10-24T05:28:11.639Z,2.88
2022-10-24T05:30:38.705Z,3.25
2022-10-24T05:33:05.781Z,2.67
2022-10-24T05:35:32.835Z,2.45
2022-10-24T05:37:59.910Z,2.53
2022-10-24T05:40:27.027Z,2.42
2022-10-24T05:42:54.154Z,2.45
2022-10-24T05:45:21.259Z,2.80
2022-10-24T05:47:48.476Z,3.33
2022-10-24T05:50:16.109Z,2.67
2022-10-24T05:52:46.907Z,2.80
2022-10-24T05:55:17.047Z,2.50
2022-10-24T05:57:45.875Z,2.63
2022-10-24T06:00:13.943Z,2.08
2022-10-24T06:02:41.573Z,2.40
2022-10-24T06:05:09.477Z,2.53
2022-10-24T06:07:37.186Z,2.20
2022-10-24T06:10:04.772Z,2.20
2022-10-24T06:12:32.878Z,2.10
2022-10-24T06:15:00.400Z,2.20
2022-10-24T06:17:27.524Z,2.42
2022-10-24T06:19:57.385Z,2.45
2022-10-24T06:22:25.206Z,2.13
2022-10-24T06:24:52.329Z,2.28
2022-10-24T06:27:19.407Z,2.28
2022-10-24T06:29:46.650Z,2.33
2022-10-24T06:32:13.735Z,2.35
2022-10-24T06:34:40.825Z,2.20
2022-10-24T06:37:07.904Z,2.00
2022-10-24T06:39:34.979Z,2.65
2022-10-24T06:42:02.075Z,3.25
2022-10-24T06:44:29.230Z,2.92
2022-10-24T06:46:56.330Z,2.22
2022-10-24T06:49:23.486Z,2.40
2022-10-24T06:51:50.571Z,2.25
2022-10-24T06:54:17.656Z,2.45
2022-10-24T06:56:44.971Z,1.95
2022-10-24T06:59:13.030Z,2.33
2022-10-24T07:01:40.222Z,2.70
2022-10-24T07:04:07.699Z,2.20
2022-10-24T07:06:34.851Z,2.40
2022-10-24T07:09:02.669Z,2.45
2022-10-24T07:11:29.806Z,2.72
2022-10-24T07:14:00.091Z,2.35
2022-10-24T07:16:28.995Z,2.53
2022-10-24T07:18:56.097Z,2.58
2022-10-24T07:21:27.015Z,2.80
2022-10-24T07:23:54.562Z,2.97
2022-10-24T07:26:22.578Z,2.95
2022-10-24T07:28:53.409Z,2.90
2022-10-24T07:31:21.852Z,3.58
2022-10-24T07:33:48.990Z,3.85
2022-10-24T07:36:20.262Z,3.38
2022-10-24T07:38:47.858Z,3.00
2022-10-24T07:41:15.232Z,2.90
2022-10-24T07:43:42.400Z,2.47
2022-10-24T07:46:10.705Z,2.67
2022-10-24T07:48:38.557Z,2.88
2022-10-24T07:51:06.838Z,2.83
2022-10-24T07:53:34.247Z,3.05
2022-10-24T07:56:01.486Z,2.85
2022-10-24T07:58:29.094Z,2.85
2022-10-24T08:00:56.250Z,2.80
2022-10-24T08:03:23.610Z,3.50
2022-10-24T08:05:50.859Z,3.22
2022-10-24T08:08:35.004Z,3.63
2022-10-24T08:11:07.311Z,3.28
2022-10-24T08:13:34.532Z,3.60
2022-10-24T08:16:02.934Z,2.78
2022-10-24T08:18:31.082Z,3.53
2022-10-24T08:20:59.555Z,2.72
2022-10-24T08:23:26.714Z,3.28
2022-10-24T08:25:53.816Z,3.58
2022-10-24T08:28:21.139Z,3.58
2022-10-24T08:31:01.529Z,3.47
2022-10-24T08:33:28.936Z,3.92
2022-10-24T08:35:57.846Z,2.92
2022-10-24T08:38:25.067Z,3.40
2022-10-24T08:40:52.442Z,3.10
2022-10-24T08:43:20.243Z,3.10
2022-10-24T08:45:52.703Z,3.22
2022-10-24T08:48:27.223Z,3.15
2022-10-24T08:50:56.546Z,3.20
2022-10-24T08:53:25.789Z,3.40
2022-10-24T08:55:54.184Z,3.05
2022-10-24T08:58:21.346Z,2.80
2022-10-24T09:00:49.584Z,3.30
2022-10-24T09:03:55.037Z,2.75
2022-10-24T09:06:24.882Z,2.75
2022-10-24T09:08:52.388Z,2.85
2022-10-24T09:11:47.903Z,2.92
2022-10-24T09:14:19.261Z,2.97
2022-10-24T09:16:48.792Z,2.53
2022-10-24T09:19:17.371Z,2.75
2022-10-24T09:21:45.422Z,2.20
2022-10-24T09:24:18.464Z,2.60
2022-10-24T09:26:45.870Z,2.72
2022-10-24T09:29:13.013Z,2.58
2022-10-24T09:31:40.925Z,2.80
2022-10-24T09:34:08.126Z,2.40
2022-10-24T09:36:35.214Z,2.25
2022-10-24T09:39:23.323Z,2.55
2022-10-24T09:41:50.564Z,2.50
2022-10-24T09:44:31.995Z,2.78
2022-10-24T09:46:59.574Z,2.50
2022-10-24T09:49:31.705Z,2.45
2022-10-24T09:52:25.311Z,2.60
2022-10-24T09:55:17.649Z,2.88
2022-10-24T09:57:45.483Z,2.80
2022-10-24T10:00:21.897Z,2.83
2022-10-24T10:03:04.208Z,2.22
2022-10-24T10:05:42.648Z,2.70
2022-10-24T10:08:16.686Z,2.60
2022-10-24T10:10:43.841Z,2.50
2022-10-24T10:13:18.881Z,2.65
2022-10-24T10:15:47.968Z,2.45
2022-10-24T10:18:22.046Z,2.15
2022-10-24T10:21:18.631Z,2.70
2022-10-24T10:23:50.126Z,2.70
2022-10-24T10:26:19.372Z,3.38
2022-10-24T10:28:48.141Z,3.70
2022-10-24T10:31:16.456Z,3.33
2022-10-24T10:33:54.188Z,2.10
2022-10-24T10:36:28.635Z,2.55
2022-10-24T10:38:58.879Z,3.08
2022-10-24T10:41:39.911Z,2.80
2022-10-24T10:44:25.724Z,3.35
2022-10-24T10:46:59.629Z,2.78
2022-10-24T10:49:35.739Z,2.75
2022-10-24T10:52:08.829Z,3.38
2022-10-24T10:54:54.637Z,2.83
2022-10-24T10:57:35.163Z,2.13
2022-10-24T11:00:13.558Z,2.45
2022-10-24T11:02:50.750Z,2.90
2022-10-24T11:05:22.966Z,2.60
2022-10-24T11:08:00.635Z,3.03
2022-10-24T11:10:34.210Z,2.50
2022-10-24T11:13:04.362Z,2.58
2022-10-24T11:15:34.297Z,2.47
2022-10-24T11:18:12.082Z,2.22
2022-10-24T11:20:45.239Z,2.20
2022-10-24T11:23:31.175Z,2.47
2022-10-24T11:25:58.230Z,2.58
2022-10-24T11:28:28.166Z,2.10
2022-10-24T11:31:09.272Z,2.00
2022-10-24T11:33:40.323Z,2.42
2022-10-24T11:36:13.253Z,2.40
2022-10-24T11:38:46.014Z,1.67
2022-10-24T11:43:43.253Z,2.65
2022-10-24T11:46:10.939Z,2.53
2022-10-24T11:48:40.707Z,1.55
2022-10-24T11:51:15.335Z,2.45
2022-10-24T11:53:50.475Z,2.30
2022-10-24T11:56:40.112Z,1.60
2022-10-24T11:59:08.679Z,2.25
2022-10-24T12:01:54.645Z,2.08
2022-10-24T12:04:33.929Z,2.00
2022-10-24T12:07:26.694Z,2.00
2022-10-24T12:10:05.712Z,2.30
2022-10-24T12:12:50.877Z,1.80
2022-10-24T12:15:17.949Z,1.90
2022-10-24T12:18:05.334Z,1.55
2022-10-24T12:20:32.716Z,1.60
2022-10-24T12:23:01.522Z,1.60
2022-10-24T12:25:32.283Z,1.52
2022-10-24T12:28:02.647Z,1.60
2022-10-24T12:30:31.690Z,1.50
2022-10-24T12:33:07.613Z,1.38
2022-10-24T12:35:37.500Z,1.75
2022-10-24T12:38:15.495Z,1.83
2022-10-24T12:40:55.574Z,1.90
2022-10-24T12:43:31.730Z,1.88
2022-10-24T12:46:09.517Z,2.17
2022-10-24T12:48:42.239Z,1.98
2022-10-24T12:51:28.460Z,1.52
2022-10-24T12:54:02.119Z,1.85
2022-10-24T12:56:29.827Z,2.47
2022-10-24T12:58:59.662Z,1.60
2022-10-24T13:01:29.747Z,1.98
2022-10-24T13:04:03.044Z,1.40
2022-10-24T13:06:49.771Z,1.65
2022-10-24T13:09:29.044Z,1.50
2022-10-24T13:11:56.251Z,1.60
2022-10-24T13:14:28.656Z,2.03
2022-10-24T13:17:06.186Z,2.35
2022-10-24T13:19:33.574Z,3.55
2022-10-24T13:22:02.178Z,2.22
2022-10-24T13:24:34.068Z,2.25
2022-10-24T13:27:12.482Z,2.10
2022-10-24T13:29:41.161Z,2.05
2022-10-24T13:32:08.229Z,1.80
2022-10-24T13:34:38.379Z,2.13
2022-10-24T13:37:15.039Z,2.10
2022-10-24T13:39:46.700Z,1.92
2022-10-24T13:42:23.763Z,1.60
2022-10-24T13:44:52.308Z,1.60
2022-10-24T13:47:19.419Z,2.13
2022-10-24T13:50:05.571Z,1.98
2022-10-24T13:52:35.481Z,2.72
2022-10-24T13:57:55.870Z,2.30
2022-10-24T14:00:27.809Z,1.88
2022-10-24T14:02:55.803Z,1.90
2022-10-24T14:05:27.043Z,2.38
2022-10-24T14:07:54.303Z,1.77
2022-10-24T14:10:21.671Z,2.00
2022-10-24T14:12:52.008Z,2.20
2022-10-24T14:15:21.991Z,1.95
2022-10-24T14:18:00.189Z,2.55
2022-10-24T14:20:27.363Z,2.30
2022-10-24T14:22:54.530Z,2.70
2022-10-24T14:25:50.815Z,2.10
2022-10-24T14:28:20.495Z,2.42
2022-10-24T14:30:54.718Z,2.70
2022-10-24T14:33:26.342Z,2.40
2022-10-24T14:35:57.053Z,1.90
2022-10-24T14:38:25.767Z,2.22
2022-10-24T14:41:06.188Z,1.90
2022-10-24T14:43:37.265Z,1.80
2022-10-24T14:46:10.272Z,2.15
2022-10-24T14:48:38.061Z,1.75
2022-10-24T14:51:11.449Z,2.17
2022-10-24T14:53:39.730Z,2.50
2022-10-24T14:56:27.946Z,2.03
2022-10-24T14:58:56.545Z,2.60
2022-10-24T15:01:24.517Z,2.53
2022-10-24T15:03:59.327Z,2.55
2022-10-24T15:06:27.811Z,2.38
2022-10-24T15:09:21.595Z,2.83
2022-10-24T15:11:49.887Z,2.22
2022-10-24T15:14:35.543Z,2.47
2022-10-24T15:17:05.856Z,2.50
2022-10-24T15:19:37.558Z,2.42
2022-10-24T15:22:04.778Z,2.15
2022-10-24T15:24:31.948Z,1.85
2022-10-24T15:27:12.722Z,2.10
2022-10-24T15:29:40.483Z,2.20
2022-10-24T15:32:10.517Z,1.60
2022-10-24T15:34:37.605Z,2.22
2022-10-24T15:37:07.690Z,1.98
2022-10-24T15:39:34.803Z,1.40
2022-10-24T15:44:35.291Z,1.88
2022-10-24T15:47:02.463Z,1.88
2022-10-24T15:49:31.409Z,2.03
2022-10-24T15:52:01.631Z,2.45
2022-10-24T15:54:29.271Z,2.10
2022-10-24T15:56:56.410Z,2.58
2022-10-24T15:59:26.699Z,2.47
2022-10-24T16:02:00.185Z,2.70
2022-10-24T16:04:28.235Z,3.28
2022-10-24T16:06:55.495Z,2.70
2022-10-24T16:09:26.509Z,2.92
2022-10-24T16:11:53.642Z,2.63
2022-10-24T16:14:22.285Z,2.92
2022-10-24T16:16:49.425Z,2.90
2022-10-24T16:19:16.550Z,2.78
2022-10-24T16:21:43.945Z,1.58
2022-10-24T16:24:12.603Z,2.45
2022-10-24T16:26:39.903Z,1.80
2022-10-24T16:29:07.055Z,7.75
2022-10-24T16:31:34.277Z,3.80
2022-10-24T16:34:01.433Z,3.17
2022-10-24T16:36:28.978Z,9.73
2022-10-24T16:38:56.151Z,2.00
2022-10-24T16:41:25.221Z,3.55
2022-10-24T16:43:55.433Z,2.45
2022-10-24T16:46:22.818Z,2.85
2022-10-24T16:48:50.368Z,2.25
2022-10-24T16:51:18.851Z,1.98
2022-10-24T16:53:46.057Z,2.10
2022-10-24T16:56:14.348Z,2.00
2022-10-24T16:58:41.799Z,1.52
2022-10-24T17:01:11.131Z,1.98
2022-10-24T17:03:38.485Z,1.90
2022-10-24T17:06:05.950Z,1.75
2022-10-24T17:08:33.066Z,1.88
2022-10-24T17:11:00.823Z,2.33
2022-10-24T17:13:28.432Z,1.98
2022-10-24T17:15:55.649Z,2.30
2022-10-24T17:18:23.584Z,2.88
2022-10-24T17:20:50.762Z,4.13
2022-10-24T17:23:19.454Z,3.13
2022-10-24T17:25:46.819Z,2.50
2022-10-24T17:28:14.760Z,2.45
2022-10-24T17:30:42.191Z,3.95
2022-10-24T17:33:10.635Z,3.00
2022-10-24T17:35:39.550Z,3.22
2022-10-24T17:38:06.649Z,3.92
2022-10-24T17:40:44.548Z,4.60
2022-10-24T17:43:18.180Z,3.42
2022-10-24T17:45:45.399Z,3.38
2022-10-24T17:48:12.627Z,2.65
2022-10-24T17:50:39.758Z,2.33
2022-10-24T17:53:08.263Z,2.60
2022-10-24T17:55:51.600Z,3.20
2022-10-24T17:58:18.859Z,3.10
2022-10-24T18:00:46.170Z,2.58
2022-10-24T18:03:13.357Z,2.45
2022-10-24T18:05:40.523Z,2.65
2022-10-24T18:08:09.183Z,2.63
2022-10-24T18:10:39.977Z,2.78
2022-10-24T18:13:07.463Z,2.75
2022-10-24T18:15:34.687Z,2.60
2022-10-24T18:18:01.798Z,2.28
2022-10-24T18:20:28.930Z,2.20
2022-10-24T18:22:56.055Z,2.70
2022-10-24T18:25:23.482Z,3.13
2022-10-24T18:27:50.903Z,2.85
2022-10-24T18:30:19.203Z,3.20
2022-10-24T18:32:47.226Z,2.90
2022-10-24T18:35:15.521Z,3.53
2022-10-24T18:37:42.693Z,2.90
2022-10-24T18:40:10.263Z,3.35
2022-10-24T18:42:43.774Z,3.15
2022-10-24T18:45:12.641Z,1.40
2022-10-24T18:47:39.947Z,1.48
2022-10-24T18:50:07.234Z,0.88
2022-10-24T18:52:52.896Z,0.70
2022-10-24T18:55:20.188Z,1.20
2022-10-24T18:57:47.927Z,0.68
2022-10-24T19:00:17.176Z,0.73
2022-10-24T19:02:44.242Z,0.93
2022-10-24T19:05:19.240Z,0.85
2022-10-24T19:07:47.340Z,0.93
2022-10-24T19:10:25.246Z,1.10
2022-10-24T19:12:52.962Z,0.80
2022-10-24T19:15:20.487Z,0.82
2022-10-24T19:17:48.258Z,0.80
2022-10-24T19:20:16.821Z,1.00
2022-10-24T19:22:44.114Z,1.00
2022-10-24T19:25:11.531Z,1.35
2022-10-24T19:27:38.683Z,0.70
2022-10-24T19:30:06.281Z,1.88
2022-10-24T19:32:33.406Z,1.00
2022-10-24T19:35:00.593Z,1.05
2022-10-24T19:37:27.796Z,1.00
2022-10-24T19:39:54.945Z,1.20
2022-10-24T19:42:22.289Z,1.10
2022-10-24T19:44:54.010Z,0.77
2022-10-24T19:47:22.059Z,0.90
2022-10-24T19:49:49.706Z,0.98
2022-10-24T19:52:17.060Z,0.80
2022-10-24T19:54:44.185Z,0.70
2022-10-24T19:57:12.019Z,0.80
2022-10-24T19:59:39.181Z,1.00
2022-10-24T20:02:06.323Z,1.17
2022-10-24T20:04:33.501Z,1.13
2022-10-24T20:07:01.714Z,1.10
2022-10-24T20:09:28.814Z,1.30
2022-10-24T20:11:55.883Z,0.90
2022-10-24T20:14:24.500Z,0.98
2022-10-24T20:16:51.786Z,1.10
2022-10-24T20:19:18.967Z,1.27
2022-10-24T20:21:46.015Z,1.60
2022-10-24T20:24:13.380Z,1.08
2022-10-24T20:26:40.489Z,1.02
2022-10-24T20:29:07.663Z,1.30
2022-10-24T20:31:36.359Z,0.98
2022-10-24T20:34:07.803Z,1.17
2022-10-24T20:36:35.394Z,1.47
2022-10-24T20:39:02.555Z,1.30
2022-10-24T20:41:29.683Z,1.42
2022-10-24T20:43:56.879Z,1.27
2022-10-24T20:46:24.401Z,1.42
2022-10-24T20:48:53.404Z,1.20
2022-10-24T20:51:21.542Z,1.38
2022-10-24T20:53:50.433Z,1.25
2022-10-24T20:56:19.099Z,1.30
2022-10-24T20:58:46.418Z,1.15
2022-10-24T21:01:14.973Z,1.00
2022-10-24T21:03:42.207Z,1.08
2022-10-24T21:06:17.092Z,1.30
2022-10-24T21:08:44.353Z,1.35
2022-10-24T21:11:15.737Z,1.02
2022-10-24T21:13:45.422Z,1.42
2022-10-24T21:16:13.783Z,1.50
2022-10-24T21:18:40.999Z,1.42
2022-10-24T21:21:09.236Z,1.40
2022-10-24T21:23:36.508Z,1.65
2022-10-24T21:26:05.241Z,1.85
2022-10-24T21:28:32.529Z,1.50
2022-10-24T21:31:09.943Z,1.70
2022-10-24T21:33:37.447Z,1.48
2022-10-24T21:36:05.735Z,1.50
2022-10-24T21:38:32.844Z,2.00
2022-10-24T21:41:01.011Z,1.55
2022-10-24T21:43:28.431Z,1.38
2022-10-24T21:46:01.542Z,1.48
2022-10-24T21:48:28.601Z,1.50
2022-10-24T21:50:55.770Z,1.58
2022-10-24T21:53:23.092Z,1.48
2022-10-24T21:55:58.885Z,1.73
2022-10-24T21:58:30.532Z,1.60
2022-10-24T22:00:57.801Z,1.52
2022-10-24T22:03:25.135Z,1.45
2022-10-24T22:05:56.404Z,1.35
2022-10-24T22:08:24.286Z,1.48
2022-10-24T22:11:01.590Z,1.15
2022-10-24T22:13:28.886Z,1.17
2022-10-24T22:15:56.193Z,1.00
2022-10-24T22:18:24.211Z,1.10
2022-10-24T22:20:51.555Z,0.93
2022-10-24T22:23:19.252Z,1.83
2022-10-24T22:25:46.402Z,1.30
2022-10-24T22:28:13.542Z,1.20
2022-10-24T22:30:41.182Z,1.10
2022-10-24T22:33:13.495Z,0.98
2022-10-24T22:35:40.633Z,1.30
2022-10-24T22:38:08.979Z,1.00
2022-10-24T22:40:36.231Z,1.38
2022-10-24T22:43:03.505Z,1.20
2022-10-24T22:45:30.849Z,1.08
2022-10-24T22:47:57.952Z,1.15
2022-10-24T22:50:25.058Z,1.10
2022-10-24T22:52:52.486Z,1.00
2022-10-24T22:55:25.670Z,1.10
2022-10-24T22:57:52.832Z,1.10
2022-10-24T23:00:20.281Z,1.52
2022-10-24T23:02:47.728Z,1.65
2022-10-24T23:05:17.886Z,1.40
2022-10-24T23:07:54.631Z,1.38
2022-10-24T23:10:23.091Z,1.60
2022-10-24T23:12:50.570Z,1.15
2022-10-24T23:15:19.310Z,1.40
2022-10-24T23:17:47.138Z,1.65
2022-10-24T23:20:17.745Z,1.80
2022-10-24T23:22:48.440Z,1.40
2022-10-24T23:25:21.666Z,1.48
2022-10-24T23:27:51.558Z,1.40
2022-10-24T23:30:23.005Z,1.40
2022-10-24T23:32:50.986Z,1.80
2022-10-24T23:35:19.070Z,1.77
2022-10-24T23:37:47.358Z,1.80
2022-10-24T23:40:17.450Z,1.73
2022-10-24T23:42:45.540Z,1.80
2022-10-24T23:45:16.362Z,1.73
2022-10-24T23:47:49.884Z,1.27
2022-10-24T23:50:29.242Z,1.20
2022-10-24T23:53:02.226Z,1.58
2022-10-24T23:55:29.438Z,1.13
2022-10-24T23:57:56.490Z,1.25
